Airfield :
LOGIN :

Register | Disclaimer

   EN    FR    IT 

 










Legend :    VFR   Marginal VFR   IFR   Intensive IFR   Very Intensive IFR
Visi :
Ceiling :
>= 8 km
>= 3000ft
5 to 8 km
1000 to 3000 ft
1500m to 5 km
500 to 1000 ft
800 to 1500m
200 to 500 ft
< 800m
< 200 ft
Symbols :   Thunderstorms  Fog  Heavy snow  Heavy precipitations  Wind > 20 kt
SIGMETs :     Misc.  Thunderstorms  Icing  Turbulence  Mountain Waves  Volcanic Ashes






- Airport Elevation : 215 ft
- IATA code : ABZ


EGPD - Aberdeen / Dyce

CURRENT METAR :
  • 131650Z AUTO 33004KT 9999 //////TCU 01/M01 Q0997 NOSIG

EXPIRED METARs :
  • 131620Z AUTO 35004KT 9999 //////CB 02/00 Q0996
  • 131550Z AUTO 33004KT 9999 //////CB 02/01 Q0996
  • 131520Z AUTO VRB03KT 9999 NCD 04/01 Q0996 NOSIG
  • 131450Z AUTO 33004KT 9999 NCD 04/01 Q0996 NOSIG
  • 131420Z AUTO 33004KT 9999 NCD 04/01 Q0996 NOSIG

TAF TAF EGPD
Valid from the 13 at 12:00 until the 14 at 12:00 UTC


131059Z 1312/1412 30008KT 9999 FEW025
PROB30
TEMPO 1312/1316 7000 SHRA
TEMPO 1316/1412 7000 SHRA BKN014



MET'MAP, your aeronautical weather chart ! - Copyright ORBIFLY December 2007 - Disclaimer

ORBIFLY MET'MAP TEAM :

Programming & Development : Alexandra Zaïnal
Concept & Development : Baudouin d'Aumeries
Co-Development & Prog : Marc-Olivier Méhu
Technical & hardware support : Manuel Goepfert

Contact : metmap@orbifly.com




SOURCES & CREDITS :

   NOAA